createdAt,value
2023-03-02T04:01:54.014Z,37.13
2023-03-02T04:04:26.394Z,26.67
2023-03-02T04:06:55.112Z,23.77
2023-03-02T04:09:23.471Z,21.47
2023-03-02T04:11:54.244Z,21.03
2023-03-02T04:14:24.022Z,18.17
2023-03-02T04:16:54.180Z,21.67
2023-03-02T04:19:24.230Z,19.60
2023-03-02T04:21:56.973Z,20.70
2023-03-02T04:24:25.285Z,17.40
2023-03-02T04:26:56.554Z,19.17
2023-03-02T04:29:25.041Z,18.63
2023-03-02T04:31:54.895Z,19.57
2023-03-02T04:34:25.397Z,20.10
2023-03-02T04:36:53.711Z,19.50
2023-03-02T04:39:21.845Z,19.23
2023-03-02T04:41:52.494Z,20.53
2023-03-02T04:44:21.376Z,20.00
2023-03-02T04:46:50.402Z,17.33
2023-03-02T04:49:20.733Z,21.50
2023-03-02T04:51:51.048Z,20.57
2023-03-02T04:54:20.802Z,22.33
2023-03-02T04:56:49.551Z,23.17
2023-03-02T04:59:17.794Z,22.53
2023-03-02T05:01:45.731Z,19.73
2023-03-02T05:04:14.142Z,21.40
2023-03-02T05:06:43.510Z,21.90
2023-03-02T05:09:11.616Z,18.93
2023-03-02T05:11:39.624Z,17.87
2023-03-02T05:14:09.709Z,20.47
2023-03-02T05:16:40.512Z,19.93
2023-03-02T05:19:12.176Z,22.97
2023-03-02T05:21:40.666Z,23.73
2023-03-02T05:24:10.207Z,24.43
2023-03-02T05:26:38.267Z,25.53
2023-03-02T05:29:06.140Z,26.50
2023-03-02T05:31:35.963Z,24.20
2023-03-02T05:34:04.982Z,24.93
2023-03-02T05:36:33.673Z,23.20
2023-03-02T05:39:01.942Z,25.17
2023-03-02T05:41:31.226Z,20.93
2023-03-02T05:43:59.065Z,20.07
2023-03-02T05:46:27.684Z,21.43
2023-03-02T05:48:55.546Z,22.43
2023-03-02T05:51:23.375Z,19.57
2023-03-02T05:53:51.246Z,18.47
2023-03-02T05:56:20.705Z,17.63
2023-03-02T05:58:49.936Z,20.10
2023-03-02T06:01:17.798Z,24.53
2023-03-02T06:03:45.642Z,20.07
2023-03-02T06:06:14.581Z,21.03
2023-03-02T06:08:42.998Z,20.53
2023-03-02T06:11:11.768Z,20.63
2023-03-02T06:13:40.493Z,20.53
2023-03-02T06:16:10.239Z,21.53
2023-03-02T06:18:40.952Z,25.13
2023-03-02T06:21:09.532Z,19.90
2023-03-02T06:23:37.602Z,23.10
2023-03-02T06:26:09.184Z,23.17
2023-03-02T06:28:49.784Z,20.20
2023-03-02T06:31:21.034Z,22.27
2023-03-02T06:33:49.020Z,20.63
2023-03-02T06:36:17.032Z,22.33
2023-03-02T06:38:45.175Z,21.80
2023-03-02T06:41:13.065Z,22.43
2023-03-02T06:43:41.056Z,23.00
2023-03-02T06:46:09.142Z,27.57
2023-03-02T06:48:38.461Z,18.83
2023-03-02T06:51:07.638Z,20.87
2023-03-02T06:53:35.522Z,18.77
2023-03-02T06:56:03.370Z,20.37
2023-03-02T06:58:31.240Z,23.37
2023-03-02T07:00:59.117Z,20.13
2023-03-02T07:03:27.270Z,19.47
2023-03-02T07:05:56.683Z,21.67
2023-03-02T07:08:24.597Z,20.10
2023-03-02T07:10:52.598Z,23.00
2023-03-02T07:13:20.522Z,56.17
2023-03-02T07:15:48.455Z,98.97
2023-03-02T07:18:16.384Z,72.03
2023-03-02T07:20:44.339Z,50.10
2023-03-02T07:23:13.495Z,38.17
2023-03-02T07:25:41.319Z,35.87
2023-03-02T07:28:09.152Z,35.23
2023-03-02T07:30:36.987Z,28.40
2023-03-02T07:33:04.957Z,23.03
2023-03-02T07:35:32.776Z,22.97
2023-03-02T07:38:00.612Z,25.23
2023-03-02T07:40:29.891Z,22.83
2023-03-02T07:42:57.919Z,24.57
2023-03-02T07:45:26.246Z,22.60
2023-03-02T07:47:54.156Z,32.43
2023-03-02T07:50:21.971Z,20.47
2023-03-02T07:52:49.914Z,20.50
2023-03-02T07:55:17.815Z,22.83
2023-03-02T07:57:47.032Z,20.33
2023-03-02T08:00:16.224Z,20.20
2023-03-02T08:02:44.294Z,22.90
2023-03-02T08:05:13.376Z,18.60
2023-03-02T08:07:42.201Z,17.27
2023-03-02T08:10:11.510Z,19.47
2023-03-02T08:12:39.374Z,18.67
2023-03-02T08:15:09.944Z,16.03
2023-03-02T08:17:37.810Z,15.70
2023-03-02T08:20:06.345Z,17.00
2023-03-02T08:22:34.180Z,17.63
2023-03-02T08:25:02.062Z,20.87
2023-03-02T08:27:30.015Z,17.13
2023-03-02T08:29:57.921Z,20.20
2023-03-02T08:32:27.353Z,19.70
2023-03-02T08:34:55.207Z,18.23
2023-03-02T08:37:23.155Z,17.43
2023-03-02T08:39:51.741Z,18.30
2023-03-02T08:42:19.564Z,16.87
2023-03-02T08:44:47.400Z,15.23
2023-03-02T08:47:15.240Z,14.93
2023-03-02T08:49:45.152Z,16.97
2023-03-02T08:52:15.108Z,15.33
2023-03-02T08:54:43.101Z,14.50
2023-03-02T08:57:12.366Z,16.60
2023-03-02T08:59:40.284Z,19.93
2023-03-02T09:02:10.856Z,15.43
2023-03-02T09:04:38.865Z,12.40
2023-03-02T09:07:08.061Z,12.70
2023-03-02T09:09:35.919Z,16.43
2023-03-02T09:12:03.913Z,12.73
2023-03-02T09:14:31.779Z,16.60
2023-03-02T09:16:59.684Z,13.90
2023-03-02T09:19:27.590Z,18.77
2023-03-02T09:21:55.418Z,19.73
2023-03-02T09:24:24.581Z,14.50
2023-03-02T09:26:52.391Z,12.20
2023-03-02T09:29:20.228Z,13.20
2023-03-02T09:31:48.048Z,13.70
2023-03-02T09:34:15.922Z,15.17
2023-03-02T09:36:43.739Z,12.77
2023-03-02T09:39:12.474Z,13.67
2023-03-02T09:42:07.318Z,14.63
2023-03-02T09:44:56.218Z,12.10
2023-03-02T09:47:35.766Z,15.30
2023-03-02T09:50:16.152Z,11.90
2023-03-02T09:52:53.107Z,13.07
2023-03-02T09:55:25.133Z,15.37
2023-03-02T09:57:55.009Z,15.10
2023-03-02T10:00:29.018Z,16.65
2023-03-02T10:03:11.330Z,16.50
2023-03-02T10:05:46.528Z,13.80
2023-03-02T10:08:16.687Z,13.03
2023-03-02T10:10:47.443Z,12.15
2023-03-02T10:13:26.107Z,15.65
2023-03-02T10:16:07.282Z,13.70
2023-03-02T10:18:39.377Z,14.93
2023-03-02T10:21:14.150Z,12.25
2023-03-02T10:23:47.186Z,14.05
2023-03-02T10:26:24.123Z,13.55
2023-03-02T10:29:01.140Z,12.02
2023-03-02T10:31:30.913Z,14.60
2023-03-02T10:33:59.144Z,12.27
2023-03-02T10:36:28.894Z,10.10
2023-03-02T10:39:00.347Z,14.82
2023-03-02T10:41:32.966Z,13.18
2023-03-02T10:44:05.243Z,11.93
2023-03-02T10:46:41.951Z,12.75
2023-03-02T10:49:26.075Z,16.50
2023-03-02T10:51:59.409Z,12.05
2023-03-02T10:54:28.703Z,15.52
2023-03-02T10:56:58.994Z,11.98
2023-03-02T10:59:44.978Z,14.77
2023-03-02T11:02:22.367Z,12.57
2023-03-02T11:04:57.495Z,16.02
2023-03-02T11:07:27.836Z,13.13
2023-03-02T11:10:04.394Z,16.30
2023-03-02T11:12:33.898Z,11.20
2023-03-02T11:15:18.817Z,11.57
2023-03-02T11:17:49.639Z,13.60
2023-03-02T11:20:24.306Z,11.95
2023-03-02T11:23:03.455Z,14.00
2023-03-02T11:25:36.442Z,11.32
2023-03-02T11:28:13.421Z,12.25
2023-03-02T11:30:48.446Z,13.52
2023-03-02T11:33:21.860Z,10.27
2023-03-02T11:35:55.470Z,14.60
2023-03-02T11:38:27.281Z,10.43
2023-03-02T11:40:59.398Z,11.80
2023-03-02T11:43:27.683Z,12.25
2023-03-02T11:46:00.921Z,9.57
2023-03-02T11:48:32.321Z,11.85
2023-03-02T11:51:04.100Z,10.35
2023-03-02T11:53:41.882Z,10.90
2023-03-02T11:56:10.774Z,14.60
2023-03-02T11:58:39.832Z,10.90
2023-03-02T12:01:13.912Z,13.48
2023-03-02T12:03:44.837Z,12.38
2023-03-02T12:06:36.307Z,12.18
2023-03-02T12:09:33.140Z,11.48
2023-03-02T12:12:28.567Z,8.68
2023-03-02T12:14:56.377Z,9.43
2023-03-02T12:17:33.668Z,9.35
2023-03-02T12:20:26.540Z,9.95
2023-03-02T12:22:54.746Z,9.18
2023-03-02T12:25:38.129Z,8.57
2023-03-02T12:28:06.092Z,12.63
2023-03-02T12:30:33.954Z,11.73
2023-03-02T12:33:15.887Z,9.73
2023-03-02T12:35:44.032Z,9.68
2023-03-02T12:38:27.887Z,10.88
2023-03-02T12:41:12.773Z,8.38
2023-03-02T12:43:46.185Z,8.50
2023-03-02T12:46:29.801Z,9.93
2023-03-02T12:49:10.754Z,12.98
2023-03-02T12:51:49.381Z,8.65
2023-03-02T12:54:20.026Z,10.05
2023-03-02T12:56:49.068Z,9.82
2023-03-02T12:59:25.599Z,11.50
2023-03-02T13:01:53.585Z,11.65
2023-03-02T13:04:27.549Z,10.25
2023-03-02T13:06:56.172Z,11.88
2023-03-02T13:09:24.689Z,10.77
2023-03-02T13:11:54.927Z,12.00
2023-03-02T13:14:26.168Z,13.68
2023-03-02T13:16:59.917Z,10.65
2023-03-02T13:19:30.608Z,12.02
2023-03-02T13:21:59.399Z,12.50
2023-03-02T13:24:32.663Z,14.75
2023-03-02T13:27:06.539Z,12.60
2023-03-02T13:29:34.559Z,8.85
2023-03-02T13:32:19.962Z,9.45
2023-03-02T13:34:51.854Z,9.18
2023-03-02T13:37:23.233Z,13.27
2023-03-02T13:39:58.204Z,7.57
2023-03-02T13:42:28.891Z,7.57
2023-03-02T13:44:56.898Z,8.80
2023-03-02T13:47:25.736Z,13.48
2023-03-02T13:49:54.908Z,7.43
2023-03-02T13:52:27.214Z,9.43
2023-03-02T13:54:55.408Z,13.20
2023-03-02T13:57:30.723Z,10.45
2023-03-02T13:59:59.364Z,9.90
2023-03-02T14:02:30.042Z,12.63
2023-03-02T14:04:59.608Z,14.25
2023-03-02T14:07:27.533Z,10.10
2023-03-02T14:09:57.473Z,11.38
2023-03-02T14:12:28.095Z,14.55
2023-03-02T14:14:59.269Z,13.45
2023-03-02T14:17:27.676Z,11.88
2023-03-02T14:19:56.402Z,10.32
2023-03-02T14:22:29.536Z,13.98
2023-03-02T14:24:57.487Z,7.80
2023-03-02T14:27:27.116Z,12.32
2023-03-02T14:29:54.968Z,11.52
2023-03-02T14:32:23.061Z,11.98
2023-03-02T14:34:50.974Z,10.55
2023-03-02T14:37:22.989Z,10.27
2023-03-02T14:39:55.516Z,10.18
2023-03-02T14:42:24.352Z,10.85
2023-03-02T14:44:52.811Z,10.60
2023-03-02T14:47:21.700Z,9.13
2023-03-02T14:49:49.699Z,9.65
2023-03-02T14:52:23.478Z,10.75
2023-03-02T14:54:55.797Z,11.05
2023-03-02T14:57:26.072Z,9.95
2023-03-02T14:59:54.620Z,11.85
2023-03-02T15:02:26.793Z,12.50
2023-03-02T15:04:56.815Z,8.55
2023-03-02T15:07:26.966Z,8.85
2023-03-02T15:09:57.483Z,9.68
2023-03-02T15:12:25.826Z,9.98
2023-03-02T15:14:53.778Z,7.70
2023-03-02T15:17:21.615Z,12.50
2023-03-02T15:19:49.744Z,11.85
2023-03-02T15:22:17.607Z,11.27
2023-03-02T15:24:45.448Z,9.27
2023-03-02T15:27:14.656Z,13.90
2023-03-02T15:29:44.896Z,11.55
2023-03-02T15:32:13.557Z,13.63
2023-03-02T15:34:41.839Z,11.10
2023-03-02T15:37:11.195Z,10.15
2023-03-02T15:39:39.159Z,12.00
2023-03-02T15:42:07.054Z,10.13
2023-03-02T15:44:36.396Z,9.50
2023-03-02T15:47:04.467Z,10.68
2023-03-02T15:49:32.794Z,12.30
2023-03-02T15:52:00.891Z,13.95
2023-03-02T15:54:29.573Z,9.07
2023-03-02T15:56:57.737Z,10.95
2023-03-02T15:59:27.416Z,9.68
2023-03-02T16:01:59.245Z,7.95
2023-03-02T16:04:27.761Z,12.45
2023-03-02T16:06:56.266Z,10.75
2023-03-02T16:09:24.947Z,10.23
2023-03-02T16:11:53.581Z,12.68
2023-03-02T16:14:21.397Z,13.13
2023-03-02T16:16:49.538Z,11.05
2023-03-02T16:19:20.033Z,12.32
2023-03-02T16:21:47.976Z,12.52
2023-03-02T16:24:16.804Z,11.10
2023-03-02T16:26:45.364Z,8.80
2023-03-02T16:29:14.590Z,10.48
2023-03-02T16:31:43.266Z,10.55
2023-03-02T16:34:11.765Z,9.73
2023-03-02T16:36:42.107Z,11.60
2023-03-02T16:39:11.693Z,8.20
2023-03-02T16:41:40.689Z,9.15
2023-03-02T16:44:08.652Z,13.07
2023-03-02T16:46:41.756Z,9.20
2023-03-02T16:49:10.095Z,10.25
2023-03-02T16:51:40.395Z,9.68
2023-03-02T16:54:08.403Z,11.45
2023-03-02T16:56:36.248Z,9.13
2023-03-02T16:59:04.210Z,10.48
2023-03-02T17:01:32.229Z,8.55
2023-03-02T17:04:00.202Z,10.02
2023-03-02T17:06:28.325Z,9.38
2023-03-02T17:08:57.735Z,9.57
2023-03-02T17:11:25.674Z,8.25
2023-03-02T17:13:53.530Z,8.38
2023-03-02T17:16:21.336Z,8.95
2023-03-02T17:18:49.203Z,7.80
2023-03-02T17:21:17.755Z,9.25
2023-03-02T17:23:47.901Z,9.47
2023-03-02T17:26:17.269Z,7.97
2023-03-02T17:28:45.231Z,6.78
2023-03-02T17:31:13.379Z,9.02
2023-03-02T17:33:41.323Z,8.18
2023-03-02T17:36:12.054Z,7.13
2023-03-02T17:38:40.434Z,7.57
2023-03-02T17:41:09.386Z,8.07
2023-03-02T17:43:40.460Z,7.88
2023-03-02T17:46:13.486Z,7.82
2023-03-02T17:48:42.066Z,7.32
2023-03-02T17:51:11.667Z,7.55
2023-03-02T17:53:39.846Z,10.07
2023-03-02T17:56:08.144Z,11.25
2023-03-02T17:58:44.726Z,12.27
2023-03-02T18:01:16.165Z,13.13
2023-03-02T18:03:45.508Z,13.27
2023-03-02T18:06:14.273Z,10.70
2023-03-02T18:08:42.095Z,8.45
2023-03-02T18:11:10.492Z,9.52
2023-03-02T18:13:38.508Z,10.40
2023-03-02T18:16:07.062Z,9.85
2023-03-02T18:18:36.395Z,10.85
2023-03-02T18:21:04.426Z,9.63
2023-03-02T18:23:32.388Z,12.20
2023-03-02T18:26:00.268Z,10.95
2023-03-02T18:28:28.286Z,12.25
2023-03-02T18:30:56.216Z,10.60
2023-03-02T18:33:24.380Z,11.45
2023-03-02T18:35:53.556Z,13.50
2023-03-02T18:38:21.449Z,13.07
2023-03-02T18:40:49.273Z,14.35
2023-03-02T18:43:17.078Z,14.15
2023-03-02T18:45:44.979Z,10.57
2023-03-02T18:48:12.914Z,11.55
2023-03-02T18:50:40.703Z,10.82
2023-03-02T18:53:12.712Z,14.07
2023-03-02T18:55:41.273Z,13.13
2023-03-02T18:58:13.639Z,10.73
2023-03-02T19:00:41.732Z,11.82
2023-03-02T19:03:09.786Z,11.10
2023-03-02T19:05:37.679Z,13.95
2023-03-02T19:08:08.506Z,16.15
2023-03-02T19:10:40.621Z,13.13
2023-03-02T19:13:09.248Z,17.27
2023-03-02T19:15:37.136Z,17.20
2023-03-02T19:18:05.270Z,15.45
2023-03-02T19:20:33.396Z,17.40
2023-03-02T19:23:01.625Z,15.85
2023-03-02T19:25:29.710Z,16.50
2023-03-02T19:27:58.891Z,17.93
2023-03-02T19:30:27.792Z,35.28
2023-03-02T19:32:56.080Z,40.33
2023-03-02T19:35:26.348Z,35.47
2023-03-02T19:37:54.358Z,33.90
2023-03-02T19:40:24.799Z,18.77
2023-03-02T19:42:53.843Z,16.93
2023-03-02T19:45:28.989Z,14.23
2023-03-02T19:47:57.765Z,14.40
2023-03-02T19:50:26.762Z,15.23
2023-03-02T19:52:55.527Z,13.67
2023-03-02T19:55:24.715Z,10.55
2023-03-02T19:57:59.647Z,11.73
2023-03-02T20:00:30.967Z,12.18
2023-03-02T20:02:59.006Z,10.47
2023-03-02T20:05:28.035Z,12.02
2023-03-02T20:07:56.443Z,14.33
2023-03-02T20:10:30.189Z,11.33
2023-03-02T20:12:59.314Z,14.33
2023-03-02T20:15:29.880Z,15.48
2023-03-02T20:17:59.407Z,15.13
2023-03-02T20:20:27.890Z,15.67
2023-03-02T20:22:55.880Z,14.07
2023-03-02T20:25:23.716Z,13.80
2023-03-02T20:27:52.881Z,10.60
2023-03-02T20:30:23.737Z,9.65
2023-03-02T20:32:53.003Z,9.53
2023-03-02T20:35:21.774Z,10.03
2023-03-02T20:37:50.132Z,9.77
2023-03-02T20:40:19.753Z,9.93
2023-03-02T20:42:47.737Z,12.13
2023-03-02T20:45:15.707Z,12.70
2023-03-02T20:47:44.433Z,12.73
2023-03-02T20:50:17.533Z,11.00
2023-03-02T20:52:45.458Z,8.83
2023-03-02T20:55:13.745Z,8.23
2023-03-02T20:57:41.893Z,7.30
2023-03-02T21:00:12.237Z,8.80
2023-03-02T21:02:40.268Z,6.13
2023-03-02T21:05:08.789Z,7.87
2023-03-02T21:07:38.198Z,7.97
2023-03-02T21:10:08.058Z,10.00
2023-03-02T21:12:36.109Z,7.37
2023-03-02T21:15:04.697Z,9.93
2023-03-02T21:17:32.536Z,13.30
2023-03-02T21:20:00.401Z,20.70
2023-03-02T21:22:28.317Z,22.50
2023-03-02T21:24:57.657Z,21.30
2023-03-02T21:27:25.533Z,20.07
2023-03-02T21:29:53.410Z,18.60
2023-03-02T21:32:21.313Z,17.80
2023-03-02T21:34:49.190Z,18.73
2023-03-02T21:37:17.021Z,28.13
2023-03-02T21:39:44.884Z,25.10
2023-03-02T21:42:14.132Z,22.90
2023-03-02T21:44:41.984Z,28.70
2023-03-02T21:47:09.844Z,20.90
2023-03-02T21:49:37.681Z,19.47
2023-03-02T21:52:07.729Z,21.53
2023-03-02T21:54:35.624Z,19.50
2023-03-02T21:57:03.453Z,18.30
2023-03-02T21:59:32.632Z,21.67
2023-03-02T22:02:01.031Z,26.53
2023-03-02T22:04:29.001Z,24.70
2023-03-02T22:06:56.825Z,21.47
2023-03-02T22:09:24.645Z,18.13
2023-03-02T22:11:52.501Z,19.33
2023-03-02T22:14:20.826Z,15.30
2023-03-02T22:16:51.920Z,17.30
2023-03-02T22:19:25.562Z,15.67
2023-03-02T22:21:54.521Z,12.13
2023-03-02T22:24:25.288Z,12.80
2023-03-02T22:26:59.241Z,13.07
2023-03-02T22:29:29.359Z,11.17
2023-03-02T22:32:07.480Z,11.07
2023-03-02T22:34:37.754Z,10.27
2023-03-02T22:37:13.293Z,10.10
2023-03-02T22:39:42.464Z,14.03
2023-03-02T22:42:14.299Z,11.37
2023-03-02T22:44:42.440Z,16.73
2023-03-02T22:47:16.881Z,13.47
2023-03-02T22:49:44.893Z,13.07
2023-03-02T22:52:15.537Z,11.93
2023-03-02T22:54:43.400Z,13.47
2023-03-02T22:57:26.031Z,13.33
2023-03-02T23:00:00.380Z,15.60
